Jackson Springs, North Carolina
Current Conditions -  °F | °C
As of 12:55 PM on Saturday 25 Oct 2014 (Local Time) from KSOP Reporting Station
Clear Clear  
Wind Chill: 66°   Ceiling: Unl
Heat Index: 66°   Visibility: 10mi
Dew Point: 39°   Wind: 5mph
Humidity: 37%   Direction: 310°NW
Pressure: 30"   Gusts: NA
Location:  35.21°N, 79.63°W
Report Text: KSOP 251655Z AUTO 31004KT 10SM CLR 19/04 A3000 RMK AO1
Loading
Personal Weather Stations






























Interactive Weather Map
Tropical Storm Tracking
New forecast layout! Learn more

10-Day Weather Forecast

Advertisements
Track Severe Weather on mobile